sensor_id;sensor_type;location;lat;lon;timestamp;P1;durP1;ratioP1;P2;durP2;ratioP2
7665;SDS011;3875;46.562;4.898;2023-05-16T00:01:17;14.23;;;11.37;;
7665;SDS011;3875;46.562;4.898;2023-05-16T00:03:43;14.73;;;11.90;;
7665;SDS011;3875;46.562;4.898;2023-05-16T00:06:09;14.93;;;11.50;;
7665;SDS011;3875;46.562;4.898;2023-05-16T00:08:35;16.80;;;10.63;;
7665;SDS011;3875;46.562;4.898;2023-05-16T00:11:01;16.83;;;11.90;;
7665;SDS011;3875;46.562;4.898;2023-05-16T00:13:27;15.10;;;11.47;;
7665;SDS011;3875;46.562;4.898;2023-05-16T00:15:54;13.90;;;11.73;;
7665;SDS011;3875;46.562;4.898;2023-05-16T00:18:21;14.27;;;11.30;;
7665;SDS011;3875;46.562;4.898;2023-05-16T00:20:47;13.20;;;10.83;;
7665;SDS011;3875;46.562;4.898;2023-05-16T00:23:13;16.00;;;11.90;;
7665;SDS011;3875;46.562;4.898;2023-05-16T00:25:39;16.93;;;12.03;;
7665;SDS011;3875;46.562;4.898;2023-05-16T00:28:05;14.87;;;12.37;;
7665;SDS011;3875;46.562;4.898;2023-05-16T00:30:32;16.27;;;11.27;;
7665;SDS011;3875;46.562;4.898;2023-05-16T00:32:58;15.27;;;11.63;;
7665;SDS011;3875;46.562;4.898;2023-05-16T00:35:24;14.20;;;11.10;;
7665;SDS011;3875;46.562;4.898;2023-05-16T00:37:50;17.47;;;12.10;;
7665;SDS011;3875;46.562;4.898;2023-05-16T00:40:15;16.90;;;11.60;;
7665;SDS011;3875;46.562;4.898;2023-05-16T00:42:41;17.43;;;11.90;;
7665;SDS011;3875;46.562;4.898;2023-05-16T00:45:07;16.10;;;11.40;;
7665;SDS011;3875;46.562;4.898;2023-05-16T00:47:34;20.03;;;12.13;;
7665;SDS011;3875;46.562;4.898;2023-05-16T00:50:00;16.00;;;11.47;;
7665;SDS011;3875;46.562;4.898;2023-05-16T00:52:28;16.10;;;11.60;;
7665;SDS011;3875;46.562;4.898;2023-05-16T00:54:54;18.77;;;11.90;;
7665;SDS011;3875;46.562;4.898;2023-05-16T00:57:20;15.50;;;11.53;;
7665;SDS011;3875;46.562;4.898;2023-05-16T00:59:47;15.03;;;11.90;;
7665;SDS011;3875;46.562;4.898;2023-05-16T01:02:13;12.53;;;10.30;;
7665;SDS011;3875;46.562;4.898;2023-05-16T01:04:39;16.13;;;11.63;;
7665;SDS011;3875;46.562;4.898;2023-05-16T01:07:06;16.60;;;12.07;;
7665;SDS011;3875;46.562;4.898;2023-05-16T01:09:32;15.40;;;11.43;;
7665;SDS011;3875;46.562;4.898;2023-05-16T01:15:05;15.87;;;11.43;;
7665;SDS011;3875;46.562;4.898;2023-05-16T01:28:08;13.77;;;10.63;;
7665;SDS011;3875;46.562;4.898;2023-05-16T01:30:35;15.33;;;10.87;;
7665;SDS011;3875;46.562;4.898;2023-05-16T01:33:03;14.27;;;10.33;;
7665;SDS011;3875;46.562;4.898;2023-05-16T01:35:29;13.30;;;10.67;;
7665;SDS011;3875;46.562;4.898;2023-05-16T01:43:58;15.90;;;11.30;;
7665;SDS011;3875;46.562;4.898;2023-05-16T01:46:30;13.93;;;10.70;;
7665;SDS011;3875;46.562;4.898;2023-05-16T01:49:09;12.57;;;10.03;;
7665;SDS011;3875;46.562;4.898;2023-05-16T01:51:41;13.10;;;10.50;;
7665;SDS011;3875;46.562;4.898;2023-05-16T01:54:13;16.67;;;11.30;;
7665;SDS011;3875;46.562;4.898;2023-05-16T01:56:44;13.87;;;10.03;;
7665;SDS011;3875;46.562;4.898;2023-05-16T01:59:18;12.97;;;10.33;;
7665;SDS011;3875;46.562;4.898;2023-05-16T02:01:46;13.30;;;10.20;;
7665;SDS011;3875;46.562;4.898;2023-05-16T02:04:11;17.07;;;10.30;;
7665;SDS011;3875;46.562;4.898;2023-05-16T02:06:39;13.27;;;10.67;;
7665;SDS011;3875;46.562;4.898;2023-05-16T02:09:08;14.77;;;10.17;;
7665;SDS011;3875;46.562;4.898;2023-05-16T02:11:34;17.17;;;10.43;;
7665;SDS011;3875;46.562;4.898;2023-05-16T02:13:59;13.33;;;10.03;;
7665;SDS011;3875;46.562;4.898;2023-05-16T02:16:25;14.20;;;10.53;;
7665;SDS011;3875;46.562;4.898;2023-05-16T02:18:51;11.73;;;8.50;;
7665;SDS011;3875;46.562;4.898;2023-05-16T02:21:16;15.47;;;9.27;;
7665;SDS011;3875;46.562;4.898;2023-05-16T02:23:42;14.23;;;10.40;;
7665;SDS011;3875;46.562;4.898;2023-05-16T02:26:08;12.30;;;9.83;;
7665;SDS011;3875;46.562;4.898;2023-05-16T02:28:34;12.47;;;9.30;;
7665;SDS011;3875;46.562;4.898;2023-05-16T02:30:59;11.33;;;9.27;;
7665;SDS011;3875;46.562;4.898;2023-05-16T02:33:27;16.87;;;10.00;;
7665;SDS011;3875;46.562;4.898;2023-05-16T02:35:53;9.33;;;8.27;;
7665;SDS011;3875;46.562;4.898;2023-05-16T02:38:19;13.77;;;10.37;;
7665;SDS011;3875;46.562;4.898;2023-05-16T02:40:48;14.17;;;10.17;;
7665;SDS011;3875;46.562;4.898;2023-05-16T02:43:14;14.67;;;9.90;;
7665;SDS011;3875;46.562;4.898;2023-05-16T02:45:40;12.33;;;9.33;;
7665;SDS011;3875;46.562;4.898;2023-05-16T02:48:06;15.53;;;10.67;;
7665;SDS011;3875;46.562;4.898;2023-05-16T02:50:32;15.33;;;10.00;;
7665;SDS011;3875;46.562;4.898;2023-05-16T02:52:58;16.87;;;10.47;;
7665;SDS011;3875;46.562;4.898;2023-05-16T02:55:26;15.60;;;10.37;;
7665;SDS011;3875;46.562;4.898;2023-05-16T02:57:52;13.07;;;9.80;;
7665;SDS011;3875;46.562;4.898;2023-05-16T03:00:18;14.40;;;10.03;;
7665;SDS011;3875;46.562;4.898;2023-05-16T03:02:44;15.33;;;9.97;;
7665;SDS011;3875;46.562;4.898;2023-05-16T03:05:10;16.93;;;9.93;;
7665;SDS011;3875;46.562;4.898;2023-05-16T03:07:36;15.87;;;10.03;;
7665;SDS011;3875;46.562;4.898;2023-05-16T03:10:02;12.50;;;7.93;;
7665;SDS011;3875;46.562;4.898;2023-05-16T03:12:28;15.63;;;10.27;;
7665;SDS011;3875;46.562;4.898;2023-05-16T03:14:54;13.27;;;8.50;;
7665;SDS011;3875;46.562;4.898;2023-05-16T03:17:19;11.50;;;8.33;;
7665;SDS011;3875;46.562;4.898;2023-05-16T03:19:45;16.27;;;9.53;;
7665;SDS011;3875;46.562;4.898;2023-05-16T03:22:11;10.27;;;7.43;;
7665;SDS011;3875;46.562;4.898;2023-05-16T03:24:37;12.87;;;9.93;;
7665;SDS011;3875;46.562;4.898;2023-05-16T03:27:03;13.30;;;8.83;;
7665;SDS011;3875;46.562;4.898;2023-05-16T03:29:29;14.07;;;9.23;;
7665;SDS011;3875;46.562;4.898;2023-05-16T03:31:55;11.63;;;8.80;;
7665;SDS011;3875;46.562;4.898;2023-05-16T03:34:21;13.27;;;8.37;;
7665;SDS011;3875;46.562;4.898;2023-05-16T03:36:50;16.37;;;9.10;;
7665;SDS011;3875;46.562;4.898;2023-05-16T03:39:16;14.70;;;8.90;;
7665;SDS011;3875;46.562;4.898;2023-05-16T03:41:42;11.93;;;8.37;;
7665;SDS011;3875;46.562;4.898;2023-05-16T03:44:08;13.43;;;9.17;;
7665;SDS011;3875;46.562;4.898;2023-05-16T03:46:34;11.97;;;7.50;;
7665;SDS011;3875;46.562;4.898;2023-05-16T03:49:00;11.47;;;7.57;;
7665;SDS011;3875;46.562;4.898;2023-05-16T03:51:26;11.10;;;7.37;;
7665;SDS011;3875;46.562;4.898;2023-05-16T03:53:52;10.77;;;7.67;;
7665;SDS011;3875;46.562;4.898;2023-05-16T03:56:18;8.43;;;6.70;;
7665;SDS011;3875;46.562;4.898;2023-05-16T03:58:44;9.43;;;5.63;;
7665;SDS011;3875;46.562;4.898;2023-05-16T04:01:09;12.90;;;7.03;;
7665;SDS011;3875;46.562;4.898;2023-05-16T04:03:35;9.20;;;5.93;;
7665;SDS011;3875;46.562;4.898;2023-05-16T04:06:02;8.87;;;6.50;;
7665;SDS011;3875;46.562;4.898;2023-05-16T04:08:28;8.77;;;6.27;;
7665;SDS011;3875;46.562;4.898;2023-05-16T04:10:53;13.30;;;6.33;;
7665;SDS011;3875;46.562;4.898;2023-05-16T04:13:19;10.60;;;7.33;;
7665;SDS011;3875;46.562;4.898;2023-05-16T04:15:45;9.40;;;6.37;;
7665;SDS011;3875;46.562;4.898;2023-05-16T04:18:11;7.97;;;6.17;;
7665;SDS011;3875;46.562;4.898;2023-05-16T04:20:37;10.20;;;7.30;;
7665;SDS011;3875;46.562;4.898;2023-05-16T04:23:03;11.10;;;7.07;;
7665;SDS011;3875;46.562;4.898;2023-05-16T04:25:28;8.00;;;5.63;;
7665;SDS011;3875;46.562;4.898;2023-05-16T04:27:55;9.13;;;7.10;;
7665;SDS011;3875;46.562;4.898;2023-05-16T04:30:21;8.27;;;6.07;;
7665;SDS011;3875;46.562;4.898;2023-05-16T04:32:46;12.63;;;7.27;;
7665;SDS011;3875;46.562;4.898;2023-05-16T04:35:12;12.10;;;7.73;;
7665;SDS011;3875;46.562;4.898;2023-05-16T04:37:38;10.00;;;6.83;;
7665;SDS011;3875;46.562;4.898;2023-05-16T04:40:04;11.13;;;7.33;;
7665;SDS011;3875;46.562;4.898;2023-05-16T04:42:31;14.40;;;7.30;;
7665;SDS011;3875;46.562;4.898;2023-05-16T04:44:57;11.77;;;7.60;;
7665;SDS011;3875;46.562;4.898;2023-05-16T04:47:23;11.17;;;7.50;;
7665;SDS011;3875;46.562;4.898;2023-05-16T04:49:48;12.10;;;6.90;;
7665;SDS011;3875;46.562;4.898;2023-05-16T04:52:14;11.03;;;7.47;;
7665;SDS011;3875;46.562;4.898;2023-05-16T04:54:40;12.67;;;7.57;;
7665;SDS011;3875;46.562;4.898;2023-05-16T04:57:06;14.20;;;8.10;;
7665;SDS011;3875;46.562;4.898;2023-05-16T04:59:32;12.47;;;8.17;;
7665;SDS011;3875;46.562;4.898;2023-05-16T05:01:57;12.30;;;8.53;;
7665;SDS011;3875;46.562;4.898;2023-05-16T05:04:23;10.00;;;7.63;;
7665;SDS011;3875;46.562;4.898;2023-05-16T05:06:49;12.67;;;8.63;;
7665;SDS011;3875;46.562;4.898;2023-05-16T05:09:14;12.77;;;7.77;;
7665;SDS011;3875;46.562;4.898;2023-05-16T05:11:41;14.47;;;8.80;;
7665;SDS011;3875;46.562;4.898;2023-05-16T05:14:06;14.73;;;8.97;;
7665;SDS011;3875;46.562;4.898;2023-05-16T05:16:32;15.83;;;9.77;;
7665;SDS011;3875;46.562;4.898;2023-05-16T05:18:58;13.93;;;8.67;;
7665;SDS011;3875;46.562;4.898;2023-05-16T05:21:24;13.10;;;8.20;;
7665;SDS011;3875;46.562;4.898;2023-05-16T05:23:50;14.90;;;9.17;;
7665;SDS011;3875;46.562;4.898;2023-05-16T05:26:16;16.50;;;8.33;;
7665;SDS011;3875;46.562;4.898;2023-05-16T05:28:42;14.60;;;9.23;;
7665;SDS011;3875;46.562;4.898;2023-05-16T05:31:08;11.97;;;8.23;;
7665;SDS011;3875;46.562;4.898;2023-05-16T05:33:33;13.77;;;8.70;;
7665;SDS011;3875;46.562;4.898;2023-05-16T05:35:59;12.07;;;8.50;;
7665;SDS011;3875;46.562;4.898;2023-05-16T05:38:25;13.37;;;8.67;;
7665;SDS011;3875;46.562;4.898;2023-05-16T05:40:50;12.63;;;8.03;;
7665;SDS011;3875;46.562;4.898;2023-05-16T05:43:16;9.10;;;7.07;;
7665;SDS011;3875;46.562;4.898;2023-05-16T05:45:42;17.50;;;8.93;;
7665;SDS011;3875;46.562;4.898;2023-05-16T05:48:08;7.67;;;4.77;;
7665;SDS011;3875;46.562;4.898;2023-05-16T05:50:34;12.00;;;7.37;;
7665;SDS011;3875;46.562;4.898;2023-05-16T05:53:01;12.77;;;8.67;;
7665;SDS011;3875;46.562;4.898;2023-05-16T05:55:26;13.40;;;8.50;;
7665;SDS011;3875;46.562;4.898;2023-05-16T05:57:52;12.97;;;8.53;;
7665;SDS011;3875;46.562;4.898;2023-05-16T06:00:18;15.27;;;9.40;;
7665;SDS011;3875;46.562;4.898;2023-05-16T06:02:43;15.40;;;8.97;;
7665;SDS011;3875;46.562;4.898;2023-05-16T06:05:09;13.40;;;8.47;;
7665;SDS011;3875;46.562;4.898;2023-05-16T06:07:35;14.07;;;8.90;;
7665;SDS011;3875;46.562;4.898;2023-05-16T06:10:01;12.20;;;8.03;;
7665;SDS011;3875;46.562;4.898;2023-05-16T06:12:29;8.53;;;6.43;;
7665;SDS011;3875;46.562;4.898;2023-05-16T06:14:55;12.47;;;7.20;;
7665;SDS011;3875;46.562;4.898;2023-05-16T06:17:20;12.07;;;7.17;;
7665;SDS011;3875;46.562;4.898;2023-05-16T06:19:46;9.67;;;7.40;;
7665;SDS011;3875;46.562;4.898;2023-05-16T06:22:12;9.33;;;7.33;;
7665;SDS011;3875;46.562;4.898;2023-05-16T06:24:38;13.90;;;7.60;;
7665;SDS011;3875;46.562;4.898;2023-05-16T06:27:04;10.27;;;7.20;;
7665;SDS011;3875;46.562;4.898;2023-05-16T06:29:30;10.43;;;7.47;;
7665;SDS011;3875;46.562;4.898;2023-05-16T06:31:56;9.00;;;7.00;;
7665;SDS011;3875;46.562;4.898;2023-05-16T06:34:21;12.17;;;6.27;;
7665;SDS011;3875;46.562;4.898;2023-05-16T06:36:53;12.90;;;7.60;;
7665;SDS011;3875;46.562;4.898;2023-05-16T06:39:19;9.43;;;7.27;;
7665;SDS011;3875;46.562;4.898;2023-05-16T06:41:45;9.97;;;6.70;;
7665;SDS011;3875;46.562;4.898;2023-05-16T06:44:11;12.33;;;7.00;;
7665;SDS011;3875;46.562;4.898;2023-05-16T06:46:36;10.87;;;7.20;;
7665;SDS011;3875;46.562;4.898;2023-05-16T06:49:02;9.53;;;4.90;;
7665;SDS011;3875;46.562;4.898;2023-05-16T06:51:28;8.90;;;6.37;;
7665;SDS011;3875;46.562;4.898;2023-05-16T06:53:55;10.03;;;6.30;;
7665;SDS011;3875;46.562;4.898;2023-05-16T06:56:21;10.63;;;6.63;;
7665;SDS011;3875;46.562;4.898;2023-05-16T06:58:47;9.33;;;5.83;;
7665;SDS011;3875;46.562;4.898;2023-05-16T07:01:13;8.23;;;5.63;;
7665;SDS011;3875;46.562;4.898;2023-05-16T07:03:39;6.53;;;4.97;;
7665;SDS011;3875;46.562;4.898;2023-05-16T07:06:05;8.53;;;5.67;;
7665;SDS011;3875;46.562;4.898;2023-05-16T07:08:31;9.50;;;6.00;;
7665;SDS011;3875;46.562;4.898;2023-05-16T07:10:57;7.37;;;4.87;;
7665;SDS011;3875;46.562;4.898;2023-05-16T07:13:23;6.17;;;4.10;;
7665;SDS011;3875;46.562;4.898;2023-05-16T07:15:48;8.27;;;5.80;;
7665;SDS011;3875;46.562;4.898;2023-05-16T07:18:14;10.23;;;5.57;;
7665;SDS011;3875;46.562;4.898;2023-05-16T07:20:40;11.30;;;4.73;;
7665;SDS011;3875;46.562;4.898;2023-05-16T07:23:05;7.17;;;4.50;;
7665;SDS011;3875;46.562;4.898;2023-05-16T07:25:31;8.97;;;5.50;;
7665;SDS011;3875;46.562;4.898;2023-05-16T07:27:57;8.30;;;4.30;;
7665;SDS011;3875;46.562;4.898;2023-05-16T07:30:23;6.83;;;3.60;;
7665;SDS011;3875;46.562;4.898;2023-05-16T07:32:49;9.43;;;4.57;;
7665;SDS011;3875;46.562;4.898;2023-05-16T07:35:15;5.80;;;4.70;;
7665;SDS011;3875;46.562;4.898;2023-05-16T07:37:40;7.57;;;4.73;;
7665;SDS011;3875;46.562;4.898;2023-05-16T07:40:07;7.27;;;4.47;;
7665;SDS011;3875;46.562;4.898;2023-05-16T07:42:34;7.30;;;4.23;;
7665;SDS011;3875;46.562;4.898;2023-05-16T07:45:00;13.70;;;2.70;;
7665;SDS011;3875;46.562;4.898;2023-05-16T07:47:26;8.13;;;5.43;;
7665;SDS011;3875;46.562;4.898;2023-05-16T07:49:52;9.23;;;5.50;;
7665;SDS011;3875;46.562;4.898;2023-05-16T07:52:17;6.53;;;4.20;;
7665;SDS011;3875;46.562;4.898;2023-05-16T07:54:45;7.97;;;4.47;;
7665;SDS011;3875;46.562;4.898;2023-05-16T07:57:12;8.00;;;3.63;;
7665;SDS011;3875;46.562;4.898;2023-05-16T07:59:39;9.17;;;5.33;;
7665;SDS011;3875;46.562;4.898;2023-05-16T08:02:05;14.70;;;3.13;;
7665;SDS011;3875;46.562;4.898;2023-05-16T08:04:31;5.27;;;3.73;;
7665;SDS011;3875;46.562;4.898;2023-05-16T08:06:56;4.17;;;3.33;;
7665;SDS011;3875;46.562;4.898;2023-05-16T08:09:22;4.80;;;2.93;;
7665;SDS011;3875;46.562;4.898;2023-05-16T08:11:48;4.77;;;3.77;;
7665;SDS011;3875;46.562;4.898;2023-05-16T08:14:13;4.57;;;3.60;;
7665;SDS011;3875;46.562;4.898;2023-05-16T08:16:39;2.30;;;1.80;;
7665;SDS011;3875;46.562;4.898;2023-05-16T08:19:05;6.47;;;4.27;;
7665;SDS011;3875;46.562;4.898;2023-05-16T08:21:31;7.80;;;4.40;;
7665;SDS011;3875;46.562;4.898;2023-05-16T08:23:57;7.47;;;3.63;;
7665;SDS011;3875;46.562;4.898;2023-05-16T08:26:23;6.97;;;3.60;;
7665;SDS011;3875;46.562;4.898;2023-05-16T08:28:49;5.27;;;2.90;;
7665;SDS011;3875;46.562;4.898;2023-05-16T08:31:14;4.03;;;2.87;;
7665;SDS011;3875;46.562;4.898;2023-05-16T08:33:40;2.93;;;2.17;;
7665;SDS011;3875;46.562;4.898;2023-05-16T08:36:08;3.50;;;2.63;;
7665;SDS011;3875;46.562;4.898;2023-05-16T08:38:34;3.40;;;2.03;;
7665;SDS011;3875;46.562;4.898;2023-05-16T08:40:59;4.10;;;2.70;;
7665;SDS011;3875;46.562;4.898;2023-05-16T08:43:25;2.90;;;2.20;;
7665;SDS011;3875;46.562;4.898;2023-05-16T08:45:51;6.03;;;2.70;;
7665;SDS011;3875;46.562;4.898;2023-05-16T08:48:17;3.37;;;2.30;;
7665;SDS011;3875;46.562;4.898;2023-05-16T08:50:46;1.70;;;1.60;;
7665;SDS011;3875;46.562;4.898;2023-05-16T08:53:12;2.57;;;1.27;;
7665;SDS011;3875;46.562;4.898;2023-05-16T08:55:42;2.10;;;1.70;;
7665;SDS011;3875;46.562;4.898;2023-05-16T08:58:09;1.77;;;1.63;;
7665;SDS011;3875;46.562;4.898;2023-05-16T09:00:36;2.10;;;1.40;;
7665;SDS011;3875;46.562;4.898;2023-05-16T09:03:03;2.97;;;2.30;;
7665;SDS011;3875;46.562;4.898;2023-05-16T09:05:30;1.23;;;1.13;;
7665;SDS011;3875;46.562;4.898;2023-05-16T09:07:56;3.33;;;1.87;;
7665;SDS011;3875;46.562;4.898;2023-05-16T09:10:21;2.83;;;2.17;;
7665;SDS011;3875;46.562;4.898;2023-05-16T09:12:47;2.57;;;1.40;;
7665;SDS011;3875;46.562;4.898;2023-05-16T09:15:13;5.50;;;1.73;;
7665;SDS011;3875;46.562;4.898;2023-05-16T09:17:40;1.20;;;1.10;;
7665;SDS011;3875;46.562;4.898;2023-05-16T09:20:08;3.40;;;1.67;;
7665;SDS011;3875;46.562;4.898;2023-05-16T09:22:34;2.60;;;1.10;;
7665;SDS011;3875;46.562;4.898;2023-05-16T09:24:59;3.10;;;1.80;;
7665;SDS011;3875;46.562;4.898;2023-05-16T09:27:25;1.37;;;1.27;;
7665;SDS011;3875;46.562;4.898;2023-05-16T09:29:51;2.07;;;1.87;;
7665;SDS011;3875;46.562;4.898;2023-05-16T09:32:16;3.57;;;1.97;;
7665;SDS011;3875;46.562;4.898;2023-05-16T09:34:43;2.10;;;1.60;;
7665;SDS011;3875;46.562;4.898;2023-05-16T09:37:10;3.00;;;2.03;;
7665;SDS011;3875;46.562;4.898;2023-05-16T09:39:38;2.43;;;1.77;;
7665;SDS011;3875;46.562;4.898;2023-05-16T09:42:11;4.00;;;1.93;;
7665;SDS011;3875;46.562;4.898;2023-05-16T09:44:48;1.30;;;1.20;;
7665;SDS011;3875;46.562;4.898;2023-05-16T09:47:16;2.30;;;1.53;;
7665;SDS011;3875;46.562;4.898;2023-05-16T09:49:43;4.13;;;1.70;;
7665;SDS011;3875;46.562;4.898;2023-05-16T09:52:10;4.70;;;2.13;;
7665;SDS011;3875;46.562;4.898;2023-05-16T09:54:40;2.17;;;1.70;;
7665;SDS011;3875;46.562;4.898;2023-05-16T09:57:06;4.17;;;1.70;;
7665;SDS011;3875;46.562;4.898;2023-05-16T09:59:38;2.60;;;2.33;;
7665;SDS011;3875;46.562;4.898;2023-05-16T10:02:05;4.77;;;2.03;;
7665;SDS011;3875;46.562;4.898;2023-05-16T10:04:32;3.33;;;2.00;;
7665;SDS011;3875;46.562;4.898;2023-05-16T10:07:01;5.17;;;1.87;;
7665;SDS011;3875;46.562;4.898;2023-05-16T10:09:28;2.40;;;2.13;;
7665;SDS011;3875;46.562;4.898;2023-05-16T10:11:57;2.13;;;1.73;;
7665;SDS011;3875;46.562;4.898;2023-05-16T10:14:29;3.73;;;1.70;;
7665;SDS011;3875;46.562;4.898;2023-05-16T10:16:58;1.50;;;1.27;;
7665;SDS011;3875;46.562;4.898;2023-05-16T10:19:25;4.90;;;2.10;;
7665;SDS011;3875;46.562;4.898;2023-05-16T10:21:53;1.60;;;1.50;;
7665;SDS011;3875;46.562;4.898;2023-05-16T10:24:28;3.93;;;2.00;;
7665;SDS011;3875;46.562;4.898;2023-05-16T10:27:02;3.23;;;1.43;;
7665;SDS011;3875;46.562;4.898;2023-05-16T10:29:29;2.20;;;1.50;;
7665;SDS011;3875;46.562;4.898;2023-05-16T10:31:55;3.47;;;1.60;;
7665;SDS011;3875;46.562;4.898;2023-05-16T10:34:22;1.23;;;1.17;;
7665;SDS011;3875;46.562;4.898;2023-05-16T10:36:47;2.83;;;1.67;;
7665;SDS011;3875;46.562;4.898;2023-05-16T10:39:14;11.03;;;1.37;;
7665;SDS011;3875;46.562;4.898;2023-05-16T10:41:41;3.77;;;1.73;;
7665;SDS011;3875;46.562;4.898;2023-05-16T10:44:11;1.33;;;1.23;;
7665;SDS011;3875;46.562;4.898;2023-05-16T10:46:41;2.37;;;1.50;;
7665;SDS011;3875;46.562;4.898;2023-05-16T10:49:20;8.77;;;1.93;;
7665;SDS011;3875;46.562;4.898;2023-05-16T10:54:41;4.20;;;1.97;;
7665;SDS011;3875;46.562;4.898;2023-05-16T10:57:15;4.30;;;1.90;;
7665;SDS011;3875;46.562;4.898;2023-05-16T10:59:44;3.57;;;1.80;;
7665;SDS011;3875;46.562;4.898;2023-05-16T11:05:00;1.73;;;1.50;;
7665;SDS011;3875;46.562;4.898;2023-05-16T11:07:33;1.53;;;1.43;;
7665;SDS011;3875;46.562;4.898;2023-05-16T11:10:01;4.20;;;2.37;;
7665;SDS011;3875;46.562;4.898;2023-05-16T11:12:36;2.00;;;1.80;;
7665;SDS011;3875;46.562;4.898;2023-05-16T11:15:19;3.53;;;1.40;;
7665;SDS011;3875;46.562;4.898;2023-05-16T11:17:45;4.53;;;2.50;;
7665;SDS011;3875;46.562;4.898;2023-05-16T11:25:43;2.97;;;1.53;;
7665;SDS011;3875;46.562;4.898;2023-05-16T11:28:10;2.67;;;1.83;;
7665;SDS011;3875;46.562;4.898;2023-05-16T11:30:47;2.23;;;1.77;;
7665;SDS011;3875;46.562;4.898;2023-05-16T11:33:15;1.60;;;1.50;;
7665;SDS011;3875;46.562;4.898;2023-05-16T11:35:41;5.23;;;2.27;;
7665;SDS011;3875;46.562;4.898;2023-05-16T11:38:13;3.50;;;1.70;;
7665;SDS011;3875;46.562;4.898;2023-05-16T11:40:43;1.43;;;1.13;;
7665;SDS011;3875;46.562;4.898;2023-05-16T11:43:09;2.60;;;1.70;;
7665;SDS011;3875;46.562;4.898;2023-05-16T11:45:35;7.63;;;2.40;;
7665;SDS011;3875;46.562;4.898;2023-05-16T11:48:01;1.57;;;1.20;;
7665;SDS011;3875;46.562;4.898;2023-05-16T11:50:28;3.10;;;1.83;;
7665;SDS011;3875;46.562;4.898;2023-05-16T11:52:54;1.77;;;1.50;;
7665;SDS011;3875;46.562;4.898;2023-05-16T11:55:22;3.67;;;1.90;;
7665;SDS011;3875;46.562;4.898;2023-05-16T11:57:52;2.13;;;1.50;;
7665;SDS011;3875;46.562;4.898;2023-05-16T12:00:20;1.50;;;1.40;;
7665;SDS011;3875;46.562;4.898;2023-05-16T12:02:49;3.10;;;2.27;;
7665;SDS011;3875;46.562;4.898;2023-05-16T12:05:15;3.53;;;1.70;;
7665;SDS011;3875;46.562;4.898;2023-05-16T12:07:42;5.50;;;2.00;;
7665;SDS011;3875;46.562;4.898;2023-05-16T12:10:10;4.90;;;2.63;;
7665;SDS011;3875;46.562;4.898;2023-05-16T12:12:39;4.80;;;1.90;;
7665;SDS011;3875;46.562;4.898;2023-05-16T12:15:07;4.63;;;2.53;;
7665;SDS011;3875;46.562;4.898;2023-05-16T12:17:33;6.53;;;2.53;;
7665;SDS011;3875;46.562;4.898;2023-05-16T12:20:00;5.80;;;2.10;;
7665;SDS011;3875;46.562;4.898;2023-05-16T12:22:29;5.27;;;2.33;;
7665;SDS011;3875;46.562;4.898;2023-05-16T12:24:56;5.10;;;1.80;;
7665;SDS011;3875;46.562;4.898;2023-05-16T12:27:24;3.60;;;2.50;;
7665;SDS011;3875;46.562;4.898;2023-05-16T12:29:50;4.47;;;2.70;;
7665;SDS011;3875;46.562;4.898;2023-05-16T12:32:19;4.20;;;2.70;;
7665;SDS011;3875;46.562;4.898;2023-05-16T12:34:48;4.57;;;2.40;;
7665;SDS011;3875;46.562;4.898;2023-05-16T12:37:19;3.63;;;1.80;;
7665;SDS011;3875;46.562;4.898;2023-05-16T12:39:45;2.20;;;1.97;;
7665;SDS011;3875;46.562;4.898;2023-05-16T12:42:12;5.03;;;1.77;;
7665;SDS011;3875;46.562;4.898;2023-05-16T12:44:39;4.37;;;2.23;;
7665;SDS011;3875;46.562;4.898;2023-05-16T12:47:11;3.63;;;2.17;;
7665;SDS011;3875;46.562;4.898;2023-05-16T12:49:44;4.10;;;2.10;;
7665;SDS011;3875;46.562;4.898;2023-05-16T12:52:11;3.43;;;1.97;;
7665;SDS011;3875;46.562;4.898;2023-05-16T12:54:44;2.97;;;1.70;;
7665;SDS011;3875;46.562;4.898;2023-05-16T12:57:09;2.93;;;1.73;;
7665;SDS011;3875;46.562;4.898;2023-05-16T12:59:35;2.57;;;1.80;;
7665;SDS011;3875;46.562;4.898;2023-05-16T13:02:01;2.93;;;1.60;;
7665;SDS011;3875;46.562;4.898;2023-05-16T13:04:27;4.73;;;1.60;;
7665;SDS011;3875;46.562;4.898;2023-05-16T13:06:54;3.70;;;2.00;;
7665;SDS011;3875;46.562;4.898;2023-05-16T13:09:19;3.40;;;2.00;;
7665;SDS011;3875;46.562;4.898;2023-05-16T13:11:45;6.63;;;2.43;;
7665;SDS011;3875;46.562;4.898;2023-05-16T13:14:12;1.03;;;1.00;;
7665;SDS011;3875;46.562;4.898;2023-05-16T13:16:37;2.90;;;1.90;;
7665;SDS011;3875;46.562;4.898;2023-05-16T13:19:03;3.20;;;2.13;;
7665;SDS011;3875;46.562;4.898;2023-05-16T13:21:29;1.83;;;1.07;;
7665;SDS011;3875;46.562;4.898;2023-05-16T13:23:56;1.37;;;1.20;;
7665;SDS011;3875;46.562;4.898;2023-05-16T13:26:22;4.20;;;2.13;;
7665;SDS011;3875;46.562;4.898;2023-05-16T13:28:48;3.07;;;1.80;;
7665;SDS011;3875;46.562;4.898;2023-05-16T13:31:17;1.37;;;1.03;;
7665;SDS011;3875;46.562;4.898;2023-05-16T13:33:43;3.53;;;1.40;;
7665;SDS011;3875;46.562;4.898;2023-05-16T13:36:09;2.23;;;1.40;;
7665;SDS011;3875;46.562;4.898;2023-05-16T13:38:34;4.90;;;1.87;;
7665;SDS011;3875;46.562;4.898;2023-05-16T13:41:00;5.80;;;1.57;;
7665;SDS011;3875;46.562;4.898;2023-05-16T13:43:26;5.47;;;1.67;;
7665;SDS011;3875;46.562;4.898;2023-05-16T13:45:51;0.70;;;0.70;;
7665;SDS011;3875;46.562;4.898;2023-05-16T13:48:17;2.00;;;1.70;;
7665;SDS011;3875;46.562;4.898;2023-05-16T13:50:43;2.03;;;1.40;;
7665;SDS011;3875;46.562;4.898;2023-05-16T13:53:09;4.33;;;1.43;;
7665;SDS011;3875;46.562;4.898;2023-05-16T13:55:35;4.87;;;1.53;;
7665;SDS011;3875;46.562;4.898;2023-05-16T13:58:00;2.57;;;1.37;;
7665;SDS011;3875;46.562;4.898;2023-05-16T14:00:26;7.40;;;1.60;;
7665;SDS011;3875;46.562;4.898;2023-05-16T14:02:53;4.07;;;1.27;;
7665;SDS011;3875;46.562;4.898;2023-05-16T14:05:18;1.97;;;1.63;;
7665;SDS011;3875;46.562;4.898;2023-05-16T14:07:44;3.20;;;1.30;;
7665;SDS011;3875;46.562;4.898;2023-05-16T14:10:10;3.67;;;1.50;;
7665;SDS011;3875;46.562;4.898;2023-05-16T14:12:36;3.13;;;1.47;;
7665;SDS011;3875;46.562;4.898;2023-05-16T14:15:02;5.43;;;1.73;;
7665;SDS011;3875;46.562;4.898;2023-05-16T14:17:29;5.17;;;1.83;;
7665;SDS011;3875;46.562;4.898;2023-05-16T14:19:54;3.30;;;1.40;;
7665;SDS011;3875;46.562;4.898;2023-05-16T14:22:20;1.13;;;0.93;;
7665;SDS011;3875;46.562;4.898;2023-05-16T14:24:46;4.47;;;1.20;;
7665;SDS011;3875;46.562;4.898;2023-05-16T14:27:11;6.17;;;1.70;;
7665;SDS011;3875;46.562;4.898;2023-05-16T14:29:39;2.57;;;1.30;;
7665;SDS011;3875;46.562;4.898;2023-05-16T14:32:05;3.13;;;1.50;;
7665;SDS011;3875;46.562;4.898;2023-05-16T14:34:30;6.97;;;1.57;;
7665;SDS011;3875;46.562;4.898;2023-05-16T14:36:57;2.80;;;1.37;;
7665;SDS011;3875;46.562;4.898;2023-05-16T14:39:23;2.83;;;1.07;;
7665;SDS011;3875;46.562;4.898;2023-05-16T14:41:48;2.03;;;1.47;;
7665;SDS011;3875;46.562;4.898;2023-05-16T14:44:14;5.00;;;1.50;;
7665;SDS011;3875;46.562;4.898;2023-05-16T14:46:40;2.03;;;1.33;;
7665;SDS011;3875;46.562;4.898;2023-05-16T14:49:05;1.10;;;1.00;;
7665;SDS011;3875;46.562;4.898;2023-05-16T14:51:32;2.43;;;1.20;;
7665;SDS011;3875;46.562;4.898;2023-05-16T14:53:58;1.60;;;1.07;;
7665;SDS011;3875;46.562;4.898;2023-05-16T14:56:24;2.60;;;1.67;;
7665;SDS011;3875;46.562;4.898;2023-05-16T14:58:50;2.80;;;1.40;;
7665;SDS011;3875;46.562;4.898;2023-05-16T15:01:16;3.30;;;1.70;;
7665;SDS011;3875;46.562;4.898;2023-05-16T15:03:42;2.47;;;1.30;;
7665;SDS011;3875;46.562;4.898;2023-05-16T15:06:07;4.00;;;1.60;;
7665;SDS011;3875;46.562;4.898;2023-05-16T15:08:39;1.97;;;1.40;;
7665;SDS011;3875;46.562;4.898;2023-05-16T15:11:05;2.63;;;1.43;;
7665;SDS011;3875;46.562;4.898;2023-05-16T15:13:31;3.07;;;1.50;;
7665;SDS011;3875;46.562;4.898;2023-05-16T15:15:57;2.23;;;1.07;;
7665;SDS011;3875;46.562;4.898;2023-05-16T15:18:22;2.07;;;1.20;;
7665;SDS011;3875;46.562;4.898;2023-05-16T15:20:48;1.17;;;0.80;;
7665;SDS011;3875;46.562;4.898;2023-05-16T15:23:16;2.77;;;1.10;;
7665;SDS011;3875;46.562;4.898;2023-05-16T15:25:41;2.03;;;1.20;;
7665;SDS011;3875;46.562;4.898;2023-05-16T15:28:07;2.77;;;1.40;;
7665;SDS011;3875;46.562;4.898;2023-05-16T15:30:33;2.07;;;1.30;;
7665;SDS011;3875;46.562;4.898;2023-05-16T15:32:58;3.47;;;1.40;;
7665;SDS011;3875;46.562;4.898;2023-05-16T15:35:24;3.17;;;1.37;;